sensor_id;sensor_type;location;lat;lon;timestamp;temperature;humidity
73643;DHT22;61938;48.652;9.292;2022-10-18T00:00:49;12.30;99.90
73643;DHT22;61938;48.652;9.292;2022-10-18T00:03:14;12.30;99.90
73643;DHT22;61938;48.652;9.292;2022-10-18T00:05:40;12.30;99.90
73643;DHT22;61938;48.652;9.292;2022-10-18T00:08:05;12.40;99.90
73643;DHT22;61938;48.652;9.292;2022-10-18T00:10:31;12.40;99.90
73643;DHT22;61938;48.652;9.292;2022-10-18T00:12:56;12.40;99.90
73643;DHT22;61938;48.652;9.292;2022-10-18T00:15:22;12.40;99.90
73643;DHT22;61938;48.652;9.292;2022-10-18T00:17:47;12.40;99.90
73643;DHT22;61938;48.652;9.292;2022-10-18T00:20:13;12.40;99.90
73643;DHT22;61938;48.652;9.292;2022-10-18T00:22:40;12.30;99.90
73643;DHT22;61938;48.652;9.292;2022-10-18T00:25:06;12.40;99.90
73643;DHT22;61938;48.652;9.292;2022-10-18T00:27:33;12.30;99.90
73643;DHT22;61938;48.652;9.292;2022-10-18T00:29:58;12.40;99.90
73643;DHT22;61938;48.652;9.292;2022-10-18T00:32:24;12.30;99.90
73643;DHT22;61938;48.652;9.292;2022-10-18T00:34:50;12.30;99.90
73643;DHT22;61938;48.652;9.292;2022-10-18T00:37:16;12.30;99.90
73643;DHT22;61938;48.652;9.292;2022-10-18T00:39:42;12.20;99.90
73643;DHT22;61938;48.652;9.292;2022-10-18T00:42:15;12.20;99.90
73643;DHT22;61938;48.652;9.292;2022-10-18T00:47:10;12.20;99.90
73643;DHT22;61938;48.652;9.292;2022-10-18T00:49:43;12.10;99.90
73643;DHT22;61938;48.652;9.292;2022-10-18T00:52:16;12.00;99.90
73643;DHT22;61938;48.652;9.292;2022-10-18T00:54:44;11.90;99.90
73643;DHT22;61938;48.652;9.292;2022-10-18T00:57:11;11.90;99.90
73643;DHT22;61938;48.652;9.292;2022-10-18T00:59:37;11.90;99.90
73643;DHT22;61938;48.652;9.292;2022-10-18T01:02:04;11.80;99.90
73643;DHT22;61938;48.652;9.292;2022-10-18T01:04:30;11.80;99.90
73643;DHT22;61938;48.652;9.292;2022-10-18T01:09:41;11.80;99.90
73643;DHT22;61938;48.652;9.292;2022-10-18T01:12:24;11.80;99.90
73643;DHT22;61938;48.652;9.292;2022-10-18T01:18:02;11.90;99.90
73643;DHT22;61938;48.652;9.292;2022-10-18T01:29:18;12.10;99.90
73643;DHT22;61938;48.652;9.292;2022-10-18T01:31:50;12.10;99.90
73643;DHT22;61938;48.652;9.292;2022-10-18T01:34:18;12.20;99.90
73643;DHT22;61938;48.652;9.292;2022-10-18T01:36:50;12.20;99.90
73643;DHT22;61938;48.652;9.292;2022-10-18T01:39:27;12.10;99.90
73643;DHT22;61938;48.652;9.292;2022-10-18T01:41:54;12.20;99.90
73643;DHT22;61938;48.652;9.292;2022-10-18T01:44:24;12.20;99.90
73643;DHT22;61938;48.652;9.292;2022-10-18T01:46:53;12.30;99.90
73643;DHT22;61938;48.652;9.292;2022-10-18T01:49:19;12.30;99.90
73643;DHT22;61938;48.652;9.292;2022-10-18T01:51:44;12.30;99.90
73643;DHT22;61938;48.652;9.292;2022-10-18T01:54:12;12.30;99.90
73643;DHT22;61938;48.652;9.292;2022-10-18T01:56:59;12.30;99.90
73643;DHT22;61938;48.652;9.292;2022-10-18T02:07:48;12.50;99.90
73643;DHT22;61938;48.652;9.292;2022-10-18T02:10:35;12.50;99.90
73643;DHT22;61938;48.652;9.292;2022-10-18T02:13:02;12.50;99.90
73643;DHT22;61938;48.652;9.292;2022-10-18T02:15:32;12.60;99.90
73643;DHT22;61938;48.652;9.292;2022-10-18T02:18:01;12.60;99.90
73643;DHT22;61938;48.652;9.292;2022-10-18T02:20:29;12.60;99.90
73643;DHT22;61938;48.652;9.292;2022-10-18T02:22:57;12.70;99.90
73643;DHT22;61938;48.652;9.292;2022-10-18T02:25:27;12.70;99.90
73643;DHT22;61938;48.652;9.292;2022-10-18T02:27:54;12.70;99.90
73643;DHT22;61938;48.652;9.292;2022-10-18T02:30:24;12.60;99.90
73643;DHT22;61938;48.652;9.292;2022-10-18T02:33:07;12.70;99.90
73643;DHT22;61938;48.652;9.292;2022-10-18T02:35:40;12.70;99.90
73643;DHT22;61938;48.652;9.292;2022-10-18T02:38:09;12.70;99.90
73643;DHT22;61938;48.652;9.292;2022-10-18T02:40:36;12.70;99.90
73643;DHT22;61938;48.652;9.292;2022-10-18T02:43:05;12.70;99.90
73643;DHT22;61938;48.652;9.292;2022-10-18T02:45:30;12.60;99.90
73643;DHT22;61938;48.652;9.292;2022-10-18T02:47:57;12.70;99.90
73643;DHT22;61938;48.652;9.292;2022-10-18T02:50:22;12.70;99.90
73643;DHT22;61938;48.652;9.292;2022-10-18T02:52:48;12.60;99.90
73643;DHT22;61938;48.652;9.292;2022-10-18T02:55:13;12.70;99.90
73643;DHT22;61938;48.652;9.292;2022-10-18T02:57:39;14.30;99.90
73643;DHT22;61938;48.652;9.292;2022-10-18T03:00:05;12.60;99.90
73643;DHT22;61938;48.652;9.292;2022-10-18T03:02:31;12.60;99.90
73643;DHT22;61938;48.652;9.292;2022-10-18T03:04:56;12.60;99.90
73643;DHT22;61938;48.652;9.292;2022-10-18T03:07:22;12.60;99.90
73643;DHT22;61938;48.652;9.292;2022-10-18T03:09:47;12.60;99.90
73643;DHT22;61938;48.652;9.292;2022-10-18T03:12:13;12.60;99.90
73643;DHT22;61938;48.652;9.292;2022-10-18T03:14:38;12.50;99.90
73643;DHT22;61938;48.652;9.292;2022-10-18T03:17:04;12.50;99.90
73643;DHT22;61938;48.652;9.292;2022-10-18T03:19:29;12.50;99.90
73643;DHT22;61938;48.652;9.292;2022-10-18T03:21:55;12.50;99.90
73643;DHT22;61938;48.652;9.292;2022-10-18T03:24:20;12.50;99.90
73643;DHT22;61938;48.652;9.292;2022-10-18T03:26:46;12.50;99.90
73643;DHT22;61938;48.652;9.292;2022-10-18T03:29:11;12.50;99.90
73643;DHT22;61938;48.652;9.292;2022-10-18T03:31:37;12.50;99.90
73643;DHT22;61938;48.652;9.292;2022-10-18T03:34:03;12.50;99.90
73643;DHT22;61938;48.652;9.292;2022-10-18T03:36:28;12.50;99.90
73643;DHT22;61938;48.652;9.292;2022-10-18T03:38:54;12.60;99.90
73643;DHT22;61938;48.652;9.292;2022-10-18T03:41:19;12.60;99.90
73643;DHT22;61938;48.652;9.292;2022-10-18T03:43:45;12.60;99.90
73643;DHT22;61938;48.652;9.292;2022-10-18T03:46:11;12.60;99.90
73643;DHT22;61938;48.652;9.292;2022-10-18T03:48:37;12.60;99.90
73643;DHT22;61938;48.652;9.292;2022-10-18T03:51:03;12.70;99.90
73643;DHT22;61938;48.652;9.292;2022-10-18T03:53:28;12.70;99.90
73643;DHT22;61938;48.652;9.292;2022-10-18T03:55:54;12.70;99.90
73643;DHT22;61938;48.652;9.292;2022-10-18T03:58:22;12.70;99.90
73643;DHT22;61938;48.652;9.292;2022-10-18T04:00:49;12.70;99.90
73643;DHT22;61938;48.652;9.292;2022-10-18T04:03:15;13.10;99.90
73643;DHT22;61938;48.652;9.292;2022-10-18T04:05:41;12.70;99.90
73643;DHT22;61938;48.652;9.292;2022-10-18T04:08:06;12.70;99.90
73643;DHT22;61938;48.652;9.292;2022-10-18T04:10:32;12.70;99.90
73643;DHT22;61938;48.652;9.292;2022-10-18T04:12:57;13.30;99.90
73643;DHT22;61938;48.652;9.292;2022-10-18T04:15:23;12.80;99.90
73643;DHT22;61938;48.652;9.292;2022-10-18T04:17:48;12.80;99.90
73643;DHT22;61938;48.652;9.292;2022-10-18T04:20:14;12.80;99.90
73643;DHT22;61938;48.652;9.292;2022-10-18T04:22:39;12.90;99.90
73643;DHT22;61938;48.652;9.292;2022-10-18T04:25:05;12.90;99.90
73643;DHT22;61938;48.652;9.292;2022-10-18T04:27:31;12.90;99.90
73643;DHT22;61938;48.652;9.292;2022-10-18T04:29:56;12.90;99.90
73643;DHT22;61938;48.652;9.292;2022-10-18T04:32:22;12.90;99.90
73643;DHT22;61938;48.652;9.292;2022-10-18T04:34:47;12.90;99.90
73643;DHT22;61938;48.652;9.292;2022-10-18T04:37:13;12.80;99.90
73643;DHT22;61938;48.652;9.292;2022-10-18T04:39:38;12.80;99.90
73643;DHT22;61938;48.652;9.292;2022-10-18T04:42:04;12.80;99.90
73643;DHT22;61938;48.652;9.292;2022-10-18T04:44:29;12.80;99.90
73643;DHT22;61938;48.652;9.292;2022-10-18T04:46:55;12.80;99.90
73643;DHT22;61938;48.652;9.292;2022-10-18T04:49:20;12.80;99.90
73643;DHT22;61938;48.652;9.292;2022-10-18T04:51:46;12.80;99.90
73643;DHT22;61938;48.652;9.292;2022-10-18T04:54:11;12.80;99.90
73643;DHT22;61938;48.652;9.292;2022-10-18T04:56:37;12.80;99.90
73643;DHT22;61938;48.652;9.292;2022-10-18T04:59:02;12.80;99.90
73643;DHT22;61938;48.652;9.292;2022-10-18T05:01:28;12.80;99.90
73643;DHT22;61938;48.652;9.292;2022-10-18T05:03:54;12.90;99.90
73643;DHT22;61938;48.652;9.292;2022-10-18T05:06:20;12.90;99.90
73643;DHT22;61938;48.652;9.292;2022-10-18T05:08:46;12.90;99.90
73643;DHT22;61938;48.652;9.292;2022-10-18T05:11:11;12.90;99.90
73643;DHT22;61938;48.652;9.292;2022-10-18T05:13:37;12.80;99.90
73643;DHT22;61938;48.652;9.292;2022-10-18T05:16:03;12.80;99.90
73643;DHT22;61938;48.652;9.292;2022-10-18T05:18:29;12.90;99.90
73643;DHT22;61938;48.652;9.292;2022-10-18T05:20:55;12.80;99.90
73643;DHT22;61938;48.652;9.292;2022-10-18T05:23:20;12.80;99.90
73643;DHT22;61938;48.652;9.292;2022-10-18T05:25:46;13.50;99.90
73643;DHT22;61938;48.652;9.292;2022-10-18T05:28:12;12.70;99.90
73643;DHT22;61938;48.652;9.292;2022-10-18T05:30:38;12.70;99.90
73643;DHT22;61938;48.652;9.292;2022-10-18T05:33:05;12.70;99.90
73643;DHT22;61938;48.652;9.292;2022-10-18T05:35:30;12.60;99.90
73643;DHT22;61938;48.652;9.292;2022-10-18T05:37:56;12.60;99.90
73643;DHT22;61938;48.652;9.292;2022-10-18T05:40:21;12.50;99.90
73643;DHT22;61938;48.652;9.292;2022-10-18T05:42:50;12.50;99.90
73643;DHT22;61938;48.652;9.292;2022-10-18T05:45:16;12.50;99.90
73643;DHT22;61938;48.652;9.292;2022-10-18T05:47:41;12.60;99.90
73643;DHT22;61938;48.652;9.292;2022-10-18T05:50:07;13.70;99.90
73643;DHT22;61938;48.652;9.292;2022-10-18T05:52:33;12.50;99.90
73643;DHT22;61938;48.652;9.292;2022-10-18T05:54:58;12.40;99.90
73643;DHT22;61938;48.652;9.292;2022-10-18T05:57:24;12.40;99.90
73643;DHT22;61938;48.652;9.292;2022-10-18T05:59:49;12.40;99.90
73643;DHT22;61938;48.652;9.292;2022-10-18T06:02:15;12.40;99.90
73643;DHT22;61938;48.652;9.292;2022-10-18T06:04:40;12.30;99.90
73643;DHT22;61938;48.652;9.292;2022-10-18T06:07:10;12.20;99.90
73643;DHT22;61938;48.652;9.292;2022-10-18T06:09:36;12.10;99.90
73643;DHT22;61938;48.652;9.292;2022-10-18T06:12:02;12.20;99.90
73643;DHT22;61938;48.652;9.292;2022-10-18T06:14:28;12.20;99.90
73643;DHT22;61938;48.652;9.292;2022-10-18T06:16:53;12.10;99.90
73643;DHT22;61938;48.652;9.292;2022-10-18T06:19:21;12.10;99.90
73643;DHT22;61938;48.652;9.292;2022-10-18T06:21:47;12.10;99.90
73643;DHT22;61938;48.652;9.292;2022-10-18T06:24:12;12.20;99.90
73643;DHT22;61938;48.652;9.292;2022-10-18T06:26:38;12.20;99.90
73643;DHT22;61938;48.652;9.292;2022-10-18T06:29:03;12.20;99.90
73643;DHT22;61938;48.652;9.292;2022-10-18T06:31:29;12.20;99.90
73643;DHT22;61938;48.652;9.292;2022-10-18T06:33:55;12.30;99.90
73643;DHT22;61938;48.652;9.292;2022-10-18T06:36:22;12.30;99.90
73643;DHT22;61938;48.652;9.292;2022-10-18T06:38:48;12.40;99.90
73643;DHT22;61938;48.652;9.292;2022-10-18T06:41:14;12.70;99.90
73643;DHT22;61938;48.652;9.292;2022-10-18T06:43:40;12.90;99.90
73643;DHT22;61938;48.652;9.292;2022-10-18T06:46:06;13.20;99.90
73643;DHT22;61938;48.652;9.292;2022-10-18T06:48:37;13.50;99.90
73643;DHT22;61938;48.652;9.292;2022-10-18T06:51:04;13.70;99.90
73643;DHT22;61938;48.652;9.292;2022-10-18T06:53:31;13.90;99.90
73643;DHT22;61938;48.652;9.292;2022-10-18T06:56:02;14.00;99.90
73643;DHT22;61938;48.652;9.292;2022-10-18T06:58:29;14.30;99.90
73643;DHT22;61938;48.652;9.292;2022-10-18T07:00:55;14.40;99.90
73643;DHT22;61938;48.652;9.292;2022-10-18T07:03:20;14.60;99.90
73643;DHT22;61938;48.652;9.292;2022-10-18T07:05:47;14.80;99.90
73643;DHT22;61938;48.652;9.292;2022-10-18T07:08:13;15.00;99.90
73643;DHT22;61938;48.652;9.292;2022-10-18T07:10:38;15.00;99.90
73643;DHT22;61938;48.652;9.292;2022-10-18T07:13:04;15.10;99.90
73643;DHT22;61938;48.652;9.292;2022-10-18T07:15:30;15.20;99.90
73643;DHT22;61938;48.652;9.292;2022-10-18T07:17:55;15.20;99.90
73643;DHT22;61938;48.652;9.292;2022-10-18T07:20:21;15.30;99.90
73643;DHT22;61938;48.652;9.292;2022-10-18T07:22:47;15.20;99.90
73643;DHT22;61938;48.652;9.292;2022-10-18T07:25:12;15.20;99.90
73643;DHT22;61938;48.652;9.292;2022-10-18T07:27:40;15.20;99.90
73643;DHT22;61938;48.652;9.292;2022-10-18T07:30:07;15.20;99.90
73643;DHT22;61938;48.652;9.292;2022-10-18T07:32:33;15.20;99.90
73643;DHT22;61938;48.652;9.292;2022-10-18T07:34:59;15.20;99.90
73643;DHT22;61938;48.652;9.292;2022-10-18T07:37:24;15.20;99.90
73643;DHT22;61938;48.652;9.292;2022-10-18T07:39:50;15.20;99.90
73643;DHT22;61938;48.652;9.292;2022-10-18T07:42:15;15.20;99.90
73643;DHT22;61938;48.652;9.292;2022-10-18T07:44:41;15.10;99.90
73643;DHT22;61938;48.652;9.292;2022-10-18T07:47:06;15.10;99.90
73643;DHT22;61938;48.652;9.292;2022-10-18T07:49:32;15.10;99.90
73643;DHT22;61938;48.652;9.292;2022-10-18T07:51:57;15.00;99.90
73643;DHT22;61938;48.652;9.292;2022-10-18T07:54:23;15.00;99.90
73643;DHT22;61938;48.652;9.292;2022-10-18T07:56:48;15.10;99.90
73643;DHT22;61938;48.652;9.292;2022-10-18T07:59:14;15.10;99.90
73643;DHT22;61938;48.652;9.292;2022-10-18T08:01:39;15.20;99.90
73643;DHT22;61938;48.652;9.292;2022-10-18T08:04:05;15.30;99.90
73643;DHT22;61938;48.652;9.292;2022-10-18T08:06:30;15.20;99.90
73643;DHT22;61938;48.652;9.292;2022-10-18T08:08:56;15.30;99.90
73643;DHT22;61938;48.652;9.292;2022-10-18T08:11:23;15.40;99.90
73643;DHT22;61938;48.652;9.292;2022-10-18T08:13:49;15.50;99.90
73643;DHT22;61938;48.652;9.292;2022-10-18T08:16:24;15.70;99.90
73643;DHT22;61938;48.652;9.292;2022-10-18T08:18:50;15.80;99.90
73643;DHT22;61938;48.652;9.292;2022-10-18T08:21:17;15.90;99.90
73643;DHT22;61938;48.652;9.292;2022-10-18T08:23:43;16.00;99.90
73643;DHT22;61938;48.652;9.292;2022-10-18T08:26:11;16.10;99.90
73643;DHT22;61938;48.652;9.292;2022-10-18T08:28:37;16.20;99.90
73643;DHT22;61938;48.652;9.292;2022-10-18T08:31:05;16.50;99.90
73643;DHT22;61938;48.652;9.292;2022-10-18T08:33:32;16.70;99.90
73643;DHT22;61938;48.652;9.292;2022-10-18T08:36:00;16.90;99.90
73643;DHT22;61938;48.652;9.292;2022-10-18T08:38:45;17.00;99.90
73643;DHT22;61938;48.652;9.292;2022-10-18T08:44:26;17.00;99.90
73643;DHT22;61938;48.652;9.292;2022-10-18T08:48:04;17.00;99.90
73643;DHT22;61938;48.652;9.292;2022-10-18T08:50:32;17.10;99.90
73643;DHT22;61938;48.652;9.292;2022-10-18T08:56:01;17.40;99.90
73643;DHT22;61938;48.652;9.292;2022-10-18T08:58:30;17.60;99.90
73643;DHT22;61938;48.652;9.292;2022-10-18T09:15:48;18.60;99.90
73643;DHT22;61938;48.652;9.292;2022-10-18T09:25:02;18.80;99.90
73643;DHT22;61938;48.652;9.292;2022-10-18T09:27:51;18.70;99.90
73643;DHT22;61938;48.652;9.292;2022-10-18T09:31:25;18.70;99.90
73643;DHT22;61938;48.652;9.292;2022-10-18T09:33:53;20.50;99.90
73643;DHT22;61938;48.652;9.292;2022-10-18T09:36:30;18.70;99.90
73643;DHT22;61938;48.652;9.292;2022-10-18T09:39:31;18.70;99.90
73643;DHT22;61938;48.652;9.292;2022-10-18T09:45:44;19.00;99.90
73643;DHT22;61938;48.652;9.292;2022-10-18T09:48:30;18.80;99.90
73643;DHT22;61938;48.652;9.292;2022-10-18T09:51:18;19.00;99.90
73643;DHT22;61938;48.652;9.292;2022-10-18T09:53:57;19.10;99.90
73643;DHT22;61938;48.652;9.292;2022-10-18T09:56:54;19.10;99.90
73643;DHT22;61938;48.652;9.292;2022-10-18T09:59:38;19.00;99.90
73643;DHT22;61938;48.652;9.292;2022-10-18T10:02:26;19.00;99.90
73643;DHT22;61938;48.652;9.292;2022-10-18T10:04:55;19.30;99.90
73643;DHT22;61938;48.652;9.292;2022-10-18T10:07:43;19.50;99.90
73643;DHT22;61938;48.652;9.292;2022-10-18T10:22:36;21.10;99.90
73643;DHT22;61938;48.652;9.292;2022-10-18T10:25:03;21.10;99.90
73643;DHT22;61938;48.652;9.292;2022-10-18T10:27:33;20.90;99.90
73643;DHT22;61938;48.652;9.292;2022-10-18T10:32:48;20.30;99.90
73643;DHT22;61938;48.652;9.292;2022-10-18T10:35:40;20.20;99.90
73643;DHT22;61938;48.652;9.292;2022-10-18T10:38:06;20.10;99.90
73643;DHT22;61938;48.652;9.292;2022-10-18T10:40:48;20.00;99.90
73643;DHT22;61938;48.652;9.292;2022-10-18T10:43:28;20.00;99.90
73643;DHT22;61938;48.652;9.292;2022-10-18T10:46:11;21.60;99.90
73643;DHT22;61938;48.652;9.292;2022-10-18T10:51:12;20.10;99.90
73643;DHT22;61938;48.652;9.292;2022-10-18T10:53:45;20.20;99.90
73643;DHT22;61938;48.652;9.292;2022-10-18T10:56:20;20.50;99.90
73643;DHT22;61938;48.652;9.292;2022-10-18T10:58:46;21.00;99.90
73643;DHT22;61938;48.652;9.292;2022-10-18T11:01:25;21.50;99.90
73643;DHT22;61938;48.652;9.292;2022-10-18T11:03:54;21.90;99.90
73643;DHT22;61938;48.652;9.292;2022-10-18T11:06:34;22.30;99.90
73643;DHT22;61938;48.652;9.292;2022-10-18T11:09:05;22.50;99.90
73643;DHT22;61938;48.652;9.292;2022-10-18T11:11:37;22.70;99.90
73643;DHT22;61938;48.652;9.292;2022-10-18T11:14:08;22.80;99.90
73643;DHT22;61938;48.652;9.292;2022-10-18T11:17:45;23.00;99.90
73643;DHT22;61938;48.652;9.292;2022-10-18T11:19:55;23.30;99.90
73643;DHT22;61938;48.652;9.292;2022-10-18T11:22:25;23.20;99.90
73643;DHT22;61938;48.652;9.292;2022-10-18T11:24:52;23.40;99.90
73643;DHT22;61938;48.652;9.292;2022-10-18T11:27:32;23.50;99.90
73643;DHT22;61938;48.652;9.292;2022-10-18T11:30:26;23.60;99.90
73643;DHT22;61938;48.652;9.292;2022-10-18T11:35:48;25.00;99.90
73643;DHT22;61938;48.652;9.292;2022-10-18T11:38:26;23.90;99.90
73643;DHT22;61938;48.652;9.292;2022-10-18T11:41:15;24.00;99.90
73643;DHT22;61938;48.652;9.292;2022-10-18T11:43:56;23.90;99.90
73643;DHT22;61938;48.652;9.292;2022-10-18T11:46:42;23.80;99.90
73643;DHT22;61938;48.652;9.292;2022-10-18T11:49:18;24.20;99.90
73643;DHT22;61938;48.652;9.292;2022-10-18T11:51:54;24.30;99.90
73643;DHT22;61938;48.652;9.292;2022-10-18T11:54:33;24.30;99.90
73643;DHT22;61938;48.652;9.292;2022-10-18T12:05:43;24.20;99.90
73643;DHT22;61938;48.652;9.292;2022-10-18T12:08:16;24.10;99.90
73643;DHT22;61938;48.652;9.292;2022-10-18T12:10:48;23.80;99.90
73643;DHT22;61938;48.652;9.292;2022-10-18T12:13:26;23.50;99.90
73643;DHT22;61938;48.652;9.292;2022-10-18T12:15:54;23.20;99.90
73643;DHT22;61938;48.652;9.292;2022-10-18T12:18:22;22.90;99.90
73643;DHT22;61938;48.652;9.292;2022-10-18T12:20:52;22.60;99.90
73643;DHT22;61938;48.652;9.292;2022-10-18T12:23:37;22.40;99.90
73643;DHT22;61938;48.652;9.292;2022-10-18T12:26:05;22.30;99.90
73643;DHT22;61938;48.652;9.292;2022-10-18T12:33:45;21.70;99.90
73643;DHT22;61938;48.652;9.292;2022-10-18T12:38:54;21.50;99.90
73643;DHT22;61938;48.652;9.292;2022-10-18T12:41:30;21.40;99.90
73643;DHT22;61938;48.652;9.292;2022-10-18T12:46:52;21.60;99.90
73643;DHT22;61938;48.652;9.292;2022-10-18T12:51:55;21.50;99.90
73643;DHT22;61938;48.652;9.292;2022-10-18T12:54:36;21.50;99.90
73643;DHT22;61938;48.652;9.292;2022-10-18T12:57:05;21.50;99.90
73643;DHT22;61938;48.652;9.292;2022-10-18T13:09:22;21.50;99.90
73643;DHT22;61938;48.652;9.292;2022-10-18T13:11:49;21.60;99.90
73643;DHT22;61938;48.652;9.292;2022-10-18T13:14:35;22.20;99.90
73643;DHT22;61938;48.652;9.292;2022-10-18T13:17:34;22.00;99.90
73643;DHT22;61938;48.652;9.292;2022-10-18T13:20:36;22.20;99.90
73643;DHT22;61938;48.652;9.292;2022-10-18T13:25:55;22.60;99.90
73643;DHT22;61938;48.652;9.292;2022-10-18T13:28:34;22.60;99.90
73643;DHT22;61938;48.652;9.292;2022-10-18T13:31:33;22.40;99.90
73643;DHT22;61938;48.652;9.292;2022-10-18T13:34:22;22.20;99.90
73643;DHT22;61938;48.652;9.292;2022-10-18T13:37:00;22.10;99.90
73643;DHT22;61938;48.652;9.292;2022-10-18T13:39:26;21.90;99.90
73643;DHT22;61938;48.652;9.292;2022-10-18T13:44:24;21.50;99.90
73643;DHT22;61938;48.652;9.292;2022-10-18T13:49:47;21.30;99.90
73643;DHT22;61938;48.652;9.292;2022-10-18T13:55:14;21.00;99.90
73643;DHT22;61938;48.652;9.292;2022-10-18T13:57:56;20.90;99.90
73643;DHT22;61938;48.652;9.292;2022-10-18T14:06:15;20.60;99.90
73643;DHT22;61938;48.652;9.292;2022-10-18T14:08:47;20.60;99.90
73643;DHT22;61938;48.652;9.292;2022-10-18T14:11:35;20.50;99.90
73643;DHT22;61938;48.652;9.292;2022-10-18T14:14:30;20.40;99.90
73643;DHT22;61938;48.652;9.292;2022-10-18T14:23:13;20.50;99.90
73643;DHT22;61938;48.652;9.292;2022-10-18T14:25:40;20.50;99.90
73643;DHT22;61938;48.652;9.292;2022-10-18T14:28:11;20.50;99.90
73643;DHT22;61938;48.652;9.292;2022-10-18T14:38:57;20.40;99.90
73643;DHT22;61938;48.652;9.292;2022-10-18T14:41:24;20.40;99.90
73643;DHT22;61938;48.652;9.292;2022-10-18T14:43:52;20.40;99.90
73643;DHT22;61938;48.652;9.292;2022-10-18T14:46:23;20.40;99.90
73643;DHT22;61938;48.652;9.292;2022-10-18T14:48:56;20.40;99.90
73643;DHT22;61938;48.652;9.292;2022-10-18T14:51:23;20.30;99.90
73643;DHT22;61938;48.652;9.292;2022-10-18T14:53:49;20.30;99.90
73643;DHT22;61938;48.652;9.292;2022-10-18T14:56:27;20.20;99.90
73643;DHT22;61938;48.652;9.292;2022-10-18T14:58:55;20.20;99.90
73643;DHT22;61938;48.652;9.292;2022-10-18T15:01:26;20.20;99.90
73643;DHT22;61938;48.652;9.292;2022-10-18T15:04:08;20.10;99.90
73643;DHT22;61938;48.652;9.292;2022-10-18T15:06:50;20.10;99.90
73643;DHT22;61938;48.652;9.292;2022-10-18T15:09:21;19.80;99.90
73643;DHT22;61938;48.652;9.292;2022-10-18T15:11:50;20.10;99.90
73643;DHT22;61938;48.652;9.292;2022-10-18T15:14:19;20.00;99.90
73643;DHT22;61938;48.652;9.292;2022-10-18T15:19:31;20.00;99.90
73643;DHT22;61938;48.652;9.292;2022-10-18T15:22:07;20.00;99.90
73643;DHT22;61938;48.652;9.292;2022-10-18T15:25:01;20.00;99.90
73643;DHT22;61938;48.652;9.292;2022-10-18T15:27:31;19.90;99.90
73643;DHT22;61938;48.652;9.292;2022-10-18T15:30:05;19.90;99.90
73643;DHT22;61938;48.652;9.292;2022-10-18T15:32:45;19.90;99.90
73643;DHT22;61938;48.652;9.292;2022-10-18T15:35:31;19.80;99.90
73643;DHT22;61938;48.652;9.292;2022-10-18T15:40:48;18.90;99.90
73643;DHT22;61938;48.652;9.292;2022-10-18T15:45:50;19.60;99.90
73643;DHT22;61938;48.652;9.292;2022-10-18T15:48:34;18.10;99.90
73643;DHT22;61938;48.652;9.292;2022-10-18T15:51:17;19.50;99.90
73643;DHT22;61938;48.652;9.292;2022-10-18T15:53:49;19.40;99.90
73643;DHT22;61938;48.652;9.292;2022-10-18T15:56:35;19.40;99.90
73643;DHT22;61938;48.652;9.292;2022-10-18T15:59:23;19.40;99.90
73643;DHT22;61938;48.652;9.292;2022-10-18T16:01:49;19.30;99.90
73643;DHT22;61938;48.652;9.292;2022-10-18T16:04:32;19.20;99.90
73643;DHT22;61938;48.652;9.292;2022-10-18T16:07:00;19.20;99.90
73643;DHT22;61938;48.652;9.292;2022-10-18T16:09:28;19.10;99.90
73643;DHT22;61938;48.652;9.292;2022-10-18T16:11:54;19.00;99.90
73643;DHT22;61938;48.652;9.292;2022-10-18T16:14:20;19.00;99.90
73643;DHT22;61938;48.652;9.292;2022-10-18T16:16:57;19.00;99.90
73643;DHT22;61938;48.652;9.292;2022-10-18T16:19:26;19.00;99.90
73643;DHT22;61938;48.652;9.292;2022-10-18T16:21:58;18.80;99.90
73643;DHT22;61938;48.652;9.292;2022-10-18T16:24:27;18.80;99.90
73643;DHT22;61938;48.652;9.292;2022-10-18T16:26:53;18.50;99.90
73643;DHT22;61938;48.652;9.292;2022-10-18T16:29:22;17.90;99.90
73643;DHT22;61938;48.652;9.292;2022-10-18T16:31:53;18.10;99.90
73643;DHT22;61938;48.652;9.292;2022-10-18T16:34:22;18.70;99.90
73643;DHT22;61938;48.652;9.292;2022-10-18T16:36:54;18.50;99.90
73643;DHT22;61938;48.652;9.292;2022-10-18T16:39:23;18.40;99.90
73643;DHT22;61938;48.652;9.292;2022-10-18T16:41:49;18.60;99.90
73643;DHT22;61938;48.652;9.292;2022-10-18T16:44:18;18.70;99.90
73643;DHT22;61938;48.652;9.292;2022-10-18T16:46:47;18.40;99.90
73643;DHT22;61938;48.652;9.292;2022-10-18T16:49:21;18.50;99.90
73643;DHT22;61938;48.652;9.292;2022-10-18T16:51:48;18.40;99.90
73643;DHT22;61938;48.652;9.292;2022-10-18T16:54:14;18.40;99.90
73643;DHT22;61938;48.652;9.292;2022-10-18T16:56:39;18.40;99.90
73643;DHT22;61938;48.652;9.292;2022-10-18T16:59:05;18.30;99.90
73643;DHT22;61938;48.652;9.292;2022-10-18T17:01:31;18.30;99.90
73643;DHT22;61938;48.652;9.292;2022-10-18T17:03:56;18.30;99.90
73643;DHT22;61938;48.652;9.292;2022-10-18T17:06:23;18.30;99.90
73643;DHT22;61938;48.652;9.292;2022-10-18T17:08:49;18.30;99.90
73643;DHT22;61938;48.652;9.292;2022-10-18T17:11:16;18.30;99.90
73643;DHT22;61938;48.652;9.292;2022-10-18T17:13:43;18.20;99.90
73643;DHT22;61938;48.652;9.292;2022-10-18T17:16:24;18.20;99.90
73643;DHT22;61938;48.652;9.292;2022-10-18T17:18:56;18.20;99.90
73643;DHT22;61938;48.652;9.292;2022-10-18T17:21:22;18.10;99.90
73643;DHT22;61938;48.652;9.292;2022-10-18T17:23:48;18.10;99.90
73643;DHT22;61938;48.652;9.292;2022-10-18T17:26:15;18.10;99.90
73643;DHT22;61938;48.652;9.292;2022-10-18T17:28:42;18.10;99.90
73643;DHT22;61938;48.652;9.292;2022-10-18T17:31:14;18.10;99.90
73643;DHT22;61938;48.652;9.292;2022-10-18T17:33:40;18.30;99.90
73643;DHT22;61938;48.652;9.292;2022-10-18T17:36:06;18.10;99.90
73643;DHT22;61938;48.652;9.292;2022-10-18T17:38:32;18.10;99.90
73643;DHT22;61938;48.652;9.292;2022-10-18T17:41:09;18.00;99.90
73643;DHT22;61938;48.652;9.292;2022-10-18T17:43:38;18.00;99.90
73643;DHT22;61938;48.652;9.292;2022-10-18T17:46:11;17.90;99.90
73643;DHT22;61938;48.652;9.292;2022-10-18T17:48:41;19.10;99.90
73643;DHT22;61938;48.652;9.292;2022-10-18T17:51:14;17.90;99.90
73643;DHT22;61938;48.652;9.292;2022-10-18T17:53:48;17.90;99.90
73643;DHT22;61938;48.652;9.292;2022-10-18T17:56:16;17.80;99.90
73643;DHT22;61938;48.652;9.292;2022-10-18T17:58:42;17.80;99.90
73643;DHT22;61938;48.652;9.292;2022-10-18T18:01:26;17.70;99.90
73643;DHT22;61938;48.652;9.292;2022-10-18T18:03:59;17.50;99.90
73643;DHT22;61938;48.652;9.292;2022-10-18T18:06:31;17.40;99.90
73643;DHT22;61938;48.652;9.292;2022-10-18T18:09:00;17.30;99.90
73643;DHT22;61938;48.652;9.292;2022-10-18T18:11:29;17.30;99.90
73643;DHT22;61938;48.652;9.292;2022-10-18T18:14:00;17.10;99.90
73643;DHT22;61938;48.652;9.292;2022-10-18T18:16:37;18.10;99.90
73643;DHT22;61938;48.652;9.292;2022-10-18T18:19:05;17.00;99.90